Time;durP1;ratioP1;P1;durP2;ratioP2;P2;SDS_P1;SDS_P2;PMS_P1;PMS_P2;Temp;Humidity;BMP_temperature;BMP_pressure;BME280_temperature;BME280_humidity;BME280_pressure;Samples;Min_cycle;Max_cycle;Signal;HPM_P1;HPM_P2
2022/01/07 00:01:01;;;;;;;;;10.75;10.75;;;;;;;;4976954;28;46241;-60
2022/01/07 00:03:26;;;;;;;;;10.75;10.75;;;;;;;;4977360;28;45342;-59
2022/01/07 00:05:52;;;;;;;;;11.75;10.75;;;;;;;;4997876;28;45313;-58
2022/01/07 00:08:17;;;;;;;;;12.75;12.50;;;;;;;;4978641;28;45564;-60
2022/01/07 00:10:42;;;;;;;;;11.00;11.00;;;;;;;;4977677;28;45979;-58
2022/01/07 00:13:07;;;;;;;;;19.50;14.75;;;;;;;;4977683;28;45342;-59
2022/01/07 00:15:32;;;;;;;;;14.25;14.25;;;;;;;;4977370;28;45263;-60
2022/01/07 00:17:58;;;;;;;;;15.50;13.25;;;;;;;;4982674;28;45471;-60
2022/01/07 00:20:24;;;;;;;;;11.50;11.50;;;;;;;;4976000;28;45603;-60
2022/01/07 00:22:49;;;;;;;;;17.25;13.50;;;;;;;;4978206;28;45308;-60
2022/01/07 00:25:14;;;;;;;;;17.25;13.00;;;;;;;;4978291;28;45267;-60
2022/01/07 00:27:40;;;;;;;;;13.50;13.50;;;;;;;;4977755;28;45189;-59
2022/01/07 00:30:06;;;;;;;;;12.50;11.75;;;;;;;;4978139;28;45942;-60
2022/01/07 00:32:32;;;;;;;;;6.75;6.00;;;;;;;;4960222;28;45550;-62
2022/01/07 00:34:57;;;;;;;;;13.00;11.25;;;;;;;;4978062;28;45377;-59
2022/01/07 00:37:22;;;;;;;;;9.00;7.50;;;;;;;;4977111;28;45473;-59
2022/01/07 00:39:48;;;;;;;;;17.50;13.25;;;;;;;;4976782;28;45495;-58
2022/01/07 00:42:13;;;;;;;;;12.50;12.50;;;;;;;;4977412;28;45334;-60
2022/01/07 00:44:38;;;;;;;;;14.00;11.25;;;;;;;;4979271;28;45329;-60
2022/01/07 00:47:04;;;;;;;;;12.50;11.00;;;;;;;;4989427;28;45316;-59
2022/01/07 00:49:29;;;;;;;;;11.75;11.75;;;;;;;;4977381;28;46312;-59
2022/01/07 00:51:56;;;;;;;;;14.00;13.25;;;;;;;;4983837;28;45305;-59
2022/01/07 00:54:22;;;;;;;;;10.00;10.00;;;;;;;;4996791;28;45313;-59
2022/01/07 00:56:47;;;;;;;;;9.50;7.25;;;;;;;;4992026;28;45459;-58
2022/01/07 00:59:12;;;;;;;;;13.75;13.75;;;;;;;;4977238;28;46136;-58
2022/01/07 01:01:37;;;;;;;;;12.25;12.25;;;;;;;;4976615;28;45240;-59
2022/01/07 01:04:03;;;;;;;;;12.25;10.00;;;;;;;;4978758;28;45460;-59
2022/01/07 01:06:28;;;;;;;;;10.00;10.00;;;;;;;;4977532;28;45521;-58
2022/01/07 01:08:54;;;;;;;;;8.50;8.50;;;;;;;;4977342;28;46077;-60
2022/01/07 01:11:19;;;;;;;;;12.50;10.50;;;;;;;;4975792;28;45310;-60
2022/01/07 01:13:44;;;;;;;;;9.50;9.50;;;;;;;;4982669;28;45387;-60
2022/01/07 01:16:09;;;;;;;;;13.50;12.00;;;;;;;;4996337;28;45636;-59
2022/01/07 01:18:34;;;;;;;;;12.00;9.00;;;;;;;;4996794;28;45276;-60
2022/01/07 01:21:00;;;;;;;;;10.00;10.00;;;;;;;;4978111;28;45511;-59
2022/01/07 01:23:25;;;;;;;;;11.00;10.00;;;;;;;;4976923;28;45262;-59
2022/01/07 01:25:51;;;;;;;;;2.00;2.00;;;;;;;;4975923;28;45712;-59
2022/01/07 01:28:16;;;;;;;;;10.00;9.00;;;;;;;;4976434;28;46027;-60
2022/01/07 01:30:41;;;;;;;;;13.00;13.00;;;;;;;;4976103;28;45527;-59
2022/01/07 01:33:07;;;;;;;;;9.00;9.00;;;;;;;;4975577;28;45400;-60
2022/01/07 01:35:32;;;;;;;;;13.00;10.00;;;;;;;;4977036;28;45348;-58
2022/01/07 01:37:58;;;;;;;;;13.25;11.75;;;;;;;;4974978;28;45528;-60
2022/01/07 01:40:23;;;;;;;;;13.75;12.00;;;;;;;;4976658;28;45422;-59
2022/01/07 01:42:52;;;;;;;;;13.50;12.75;;;;;;;;4975268;28;45321;-59
2022/01/07 01:45:18;;;;;;;;;10.75;10.75;;;;;;;;4975376;28;45385;-60
2022/01/07 01:47:43;;;;;;;;;12.00;9.75;;;;;;;;4976073;28;45844;-58
2022/01/07 01:50:09;;;;;;;;;12.00;10.00;;;;;;;;4974575;28;45384;-60
2022/01/07 01:52:34;;;;;;;;;17.25;12.00;;;;;;;;4975642;28;45263;-60
2022/01/07 01:55:00;;;;;;;;;1.00;1.00;;;;;;;;4975459;28;45413;-58
2022/01/07 01:57:25;;;;;;;;;12.25;10.00;;;;;;;;4976590;28;45491;-60
2022/01/07 01:59:50;;;;;;;;;15.25;10.00;;;;;;;;4975940;28;45282;-60
2022/01/07 02:02:15;;;;;;;;;10.00;10.00;;;;;;;;4976193;28;45463;-58
2022/01/07 02:04:41;;;;;;;;;10.00;10.00;;;;;;;;4976899;28;45603;-58
2022/01/07 02:07:07;;;;;;;;;13.00;13.00;;;;;;;;4976504;28;45318;-59
2022/01/07 02:09:35;;;;;;;;;12.75;12.75;;;;;;;;4974627;28;45512;-60
2022/01/07 02:12:01;;;;;;;;;16.00;13.25;;;;;;;;4974180;28;45487;-60
2022/01/07 02:14:26;;;;;;;;;14.00;9.25;;;;;;;;4975456;28;45555;-60
2022/01/07 02:16:52;;;;;;;;;10.25;10.25;;;;;;;;4974272;28;47016;-59
2022/01/07 02:19:17;;;;;;;;;11.50;9.25;;;;;;;;4975522;28;45606;-59
2022/01/07 02:21:42;;;;;;;;;9.50;8.75;;;;;;;;4973685;28;45318;-61
2022/01/07 02:24:07;;;;;;;;;14.50;10.25;;;;;;;;4974754;28;45453;-63
2022/01/07 02:26:33;;;;;;;;;12.25;12.00;;;;;;;;4974078;28;46318;-60
2022/01/07 02:28:59;;;;;;;;;10.25;9.00;;;;;;;;4975020;28;45279;-59
2022/01/07 02:31:24;;;;;;;;;11.00;11.00;;;;;;;;4973484;28;45595;-60
2022/01/07 02:33:50;;;;;;;;;11.00;10.00;;;;;;;;4975754;28;45245;-59
2022/01/07 02:36:15;;;;;;;;;12.75;11.00;;;;;;;;4975636;28;46193;-58
2022/01/07 02:38:40;;;;;;;;;10.50;6.75;;;;;;;;4973991;28;45484;-59
2022/01/07 02:41:05;;;;;;;;;12.50;10.00;;;;;;;;4971479;28;45436;-60
2022/01/07 02:43:32;;;;;;;;;9.25;7.50;;;;;;;;4971261;28;45541;-60
2022/01/07 02:45:57;;;;;;;;;11.25;11.25;;;;;;;;4975545;28;46581;-59
2022/01/07 02:48:22;;;;;;;;;10.00;9.00;;;;;;;;4974967;28;45523;-60
2022/01/07 02:50:48;;;;;;;;;11.25;11.25;;;;;;;;4975496;28;45388;-60
2022/01/07 02:53:13;;;;;;;;;6.50;6.00;;;;;;;;4973748;28;45334;-58
2022/01/07 02:55:39;;;;;;;;;10.00;10.00;;;;;;;;4975318;28;45285;-59
2022/01/07 02:58:04;;;;;;;;;14.00;11.25;;;;;;;;4973826;28;45521;-58
2022/01/07 03:00:31;;;;;;;;;9.00;9.00;;;;;;;;4975287;28;45496;-59
2022/01/07 03:02:56;;;;;;;;;10.75;9.75;;;;;;;;4975120;28;45400;-60
2022/01/07 03:05:22;;;;;;;;;5.50;5.50;;;;;;;;4974305;28;46168;-60
2022/01/07 03:07:48;;;;;;;;;10.00;7.75;;;;;;;;4974375;28;45581;-59
2022/01/07 03:10:14;;;;;;;;;9.75;9.75;;;;;;;;4974086;28;45300;-58
2022/01/07 03:12:42;;;;;;;;;9.00;9.00;;;;;;;;4975977;28;45370;-59
2022/01/07 03:15:09;;;;;;;;;13.00;10.25;;;;;;;;4973337;28;48210;-59
2022/01/07 03:17:34;;;;;;;;;11.75;11.75;;;;;;;;4973434;28;45432;-60
2022/01/07 03:20:00;;;;;;;;;9.00;8.25;;;;;;;;4975036;28;45234;-60
2022/01/07 03:22:25;;;;;;;;;9.00;9.00;;;;;;;;4974449;28;45432;-60
2022/01/07 03:24:51;;;;;;;;;9.00;9.00;;;;;;;;4977626;28;46216;-58
2022/01/07 03:27:16;;;;;;;;;8.50;8.50;;;;;;;;4977812;28;45472;-59
2022/01/07 03:29:41;;;;;;;;;7.25;6.00;;;;;;;;4978525;28;45434;-60
2022/01/07 03:32:06;;;;;;;;;8.50;7.25;;;;;;;;4978930;28;45311;-60
2022/01/07 03:34:32;;;;;;;;;8.75;8.75;;;;;;;;4978725;28;45388;-60
2022/01/07 03:36:57;;;;;;;;;13.00;10.00;;;;;;;;4978210;28;45391;-59
2022/01/07 03:39:22;;;;;;;;;6.50;6.50;;;;;;;;4977986;28;45171;-59
2022/01/07 03:41:47;;;;;;;;;8.25;6.50;;;;;;;;4978600;28;45591;-59
2022/01/07 03:44:13;;;;;;;;;9.75;9.75;;;;;;;;4976181;28;48914;-59
2022/01/07 03:46:38;;;;;;;;;8.25;6.00;;;;;;;;4978235;28;45476;-58
2022/01/07 03:49:03;;;;;;;;;9.00;6.00;;;;;;;;4977820;28;45280;-59
2022/01/07 03:51:28;;;;;;;;;8.50;5.00;;;;;;;;4977842;28;45341;-60
2022/01/07 03:53:53;;;;;;;;;6.00;6.00;;;;;;;;4977974;28;45458;-59
2022/01/07 03:56:20;;;;;;;;;6.00;6.00;;;;;;;;4977900;28;45478;-59
2022/01/07 03:58:46;;;;;;;;;12.25;7.00;;;;;;;;4978502;28;45364;-58
2022/01/07 04:01:11;;;;;;;;;6.25;6.25;;;;;;;;4977962;28;45446;-59
2022/01/07 04:03:36;;;;;;;;;6.00;5.75;;;;;;;;4976581;28;45342;-60
2022/01/07 04:06:01;;;;;;;;;7.25;4.50;;;;;;;;4977347;28;45250;-60
2022/01/07 04:08:26;;;;;;;;;8.25;8.25;;;;;;;;4978344;28;45429;-58
2022/01/07 04:10:52;;;;;;;;;5.75;5.75;;;;;;;;4977811;28;45431;-59
2022/01/07 04:13:17;;;;;;;;;6.25;6.25;;;;;;;;4977671;28;46396;-60
2022/01/07 04:15:42;;;;;;;;;8.50;7.00;;;;;;;;4976241;28;45266;-59
2022/01/07 04:18:07;;;;;;;;;2.50;1.75;;;;;;;;4977357;28;45341;-58
2022/01/07 04:20:33;;;;;;;;;7.75;6.50;;;;;;;;4976522;28;45322;-60
2022/01/07 04:22:59;;;;;;;;;5.00;5.00;;;;;;;;4976979;28;45316;-59
2022/01/07 04:25:24;;;;;;;;;9.00;6.00;;;;;;;;4978157;28;45302;-59
2022/01/07 04:27:52;;;;;;;;;6.00;5.50;;;;;;;;4977623;28;45533;-59
2022/01/07 04:30:17;;;;;;;;;7.50;6.00;;;;;;;;4976383;28;45534;-59
2022/01/07 04:32:43;;;;;;;;;6.00;6.00;;;;;;;;4976143;28;46139;-61
2022/01/07 04:35:09;;;;;;;;;5.00;5.00;;;;;;;;4977691;28;45385;-59
2022/01/07 04:37:34;;;;;;;;;7.75;6.00;;;;;;;;4978077;28;45445;-60
2022/01/07 04:39:59;;;;;;;;;9.75;6.00;;;;;;;;4977403;28;45439;-60
2022/01/07 04:42:25;;;;;;;;;5.00;5.00;;;;;;;;4977278;28;46182;-60
2022/01/07 04:44:50;;;;;;;;;6.75;6.75;;;;;;;;4977247;28;45396;-59
2022/01/07 04:47:15;;;;;;;;;7.00;6.00;;;;;;;;4977609;28;45331;-60
2022/01/07 04:49:40;;;;;;;;;6.50;4.75;;;;;;;;4976324;28;45571;-59
2022/01/07 04:52:06;;;;;;;;;6.50;5.25;;;;;;;;4976233;28;46603;-61
2022/01/07 04:54:31;;;;;;;;;5.25;5.25;;;;;;;;4976654;28;45350;-59
2022/01/07 04:56:57;;;;;;;;;1.00;1.00;;;;;;;;4976248;28;45394;-60
2022/01/07 04:59:22;;;;;;;;;7.00;5.00;;;;;;;;4977575;28;45514;-61
2022/01/07 05:01:47;;;;;;;;;6.50;5.00;;;;;;;;4976632;28;45337;-60
2022/01/07 05:04:13;;;;;;;;;5.00;5.00;;;;;;;;4977281;28;45300;-61
2022/01/07 05:06:44;;;;;;;;;2.25;2.25;;;;;;;;4976196;28;45407;-60
2022/01/07 05:09:10;;;;;;;;;5.00;5.00;;;;;;;;4958128;28;45346;-59
2022/01/07 05:11:35;;;;;;;;;4.75;4.75;;;;;;;;4973766;28;45366;-61
2022/01/07 05:14:00;;;;;;;;;7.50;5.50;;;;;;;;4976669;28;45483;-60
2022/01/07 05:16:28;;;;;;;;;5.00;4.75;;;;;;;;4976944;28;45337;-60
2022/01/07 05:18:54;;;;;;;;;11.50;6.25;;;;;;;;4976803;28;45286;-59
2022/01/07 05:21:19;;;;;;;;;6.50;5.00;;;;;;;;4976518;28;45447;-61
2022/01/07 05:23:44;;;;;;;;;6.00;4.75;;;;;;;;4976806;28;45483;-59
2022/01/07 05:26:09;;;;;;;;;8.75;5.75;;;;;;;;4977205;28;45435;-60
2022/01/07 05:28:34;;;;;;;;;8.25;5.00;;;;;;;;4976082;28;45430;-61
2022/01/07 05:31:00;;;;;;;;;5.75;5.50;;;;;;;;4975958;28;46340;-60
2022/01/07 05:33:25;;;;;;;;;5.00;5.00;;;;;;;;4976542;28;45403;-60
2022/01/07 05:35:50;;;;;;;;;5.00;3.00;;;;;;;;4977400;28;45406;-60
2022/01/07 05:38:15;;;;;;;;;2.50;2.50;;;;;;;;4975235;28;45324;-60
2022/01/07 05:40:41;;;;;;;;;6.50;6.50;;;;;;;;4977401;28;46250;-61
2022/01/07 05:43:06;;;;;;;;;4.00;3.25;;;;;;;;4976595;28;45443;-60
2022/01/07 05:45:31;;;;;;;;;5.25;5.25;;;;;;;;4975589;28;45238;-60
2022/01/07 05:47:56;;;;;;;;;7.00;5.50;;;;;;;;4976116;28;45359;-62
2022/01/07 05:50:22;;;;;;;;;2.00;2.00;;;;;;;;4984081;28;46217;-60
2022/01/07 05:52:47;;;;;;;;;7.75;7.75;;;;;;;;4978928;28;45365;-60
2022/01/07 05:55:13;;;;;;;;;5.00;5.00;;;;;;;;4980131;28;45471;-61
2022/01/07 05:57:38;;;;;;;;;5.50;3.50;;;;;;;;4985347;28;45239;-60
2022/01/07 06:00:05;;;;;;;;;4.25;4.00;;;;;;;;4976312;28;45191;-60
2022/01/07 06:02:30;;;;;;;;;3.00;3.00;;;;;;;;4974761;28;45322;-59
2022/01/07 06:04:55;;;;;;;;;7.25;6.00;;;;;;;;4976500;28;45504;-59
2022/01/07 06:07:21;;;;;;;;;3.00;3.00;;;;;;;;4979619;28;45320;-61
2022/01/07 06:09:46;;;;;;;;;5.50;3.75;;;;;;;;4981647;28;45951;-59
2022/01/07 06:12:11;;;;;;;;;5.50;5.50;;;;;;;;4974440;28;45797;-59
2022/01/07 06:14:36;;;;;;;;;3.25;3.25;;;;;;;;4975961;28;45472;-59
2022/01/07 06:17:02;;;;;;;;;5.00;5.00;;;;;;;;4976128;28;45374;-61
2022/01/07 06:19:27;;;;;;;;;5.75;5.00;;;;;;;;4976640;28;46153;-59
2022/01/07 06:21:52;;;;;;;;;4.50;4.50;;;;;;;;4975545;28;45419;-60
2022/01/07 06:24:17;;;;;;;;;5.00;4.00;;;;;;;;4975516;28;45354;-60
2022/01/07 06:26:42;;;;;;;;;5.25;5.25;;;;;;;;4976217;28;45452;-60
2022/01/07 06:29:08;;;;;;;;;6.00;4.50;;;;;;;;4976151;28;46119;-60
2022/01/07 06:31:33;;;;;;;;;9.00;6.50;;;;;;;;4975784;28;45474;-60
2022/01/07 06:33:59;;;;;;;;;5.00;5.00;;;;;;;;4974764;28;45463;-60
2022/01/07 06:36:25;;;;;;;;;5.50;5.50;;;;;;;;4975923;28;45407;-61
2022/01/07 06:38:50;;;;;;;;;5.00;5.00;;;;;;;;4974762;28;45381;-60
2022/01/07 06:41:15;;;;;;;;;5.25;5.25;;;;;;;;4975838;28;45309;-59
2022/01/07 06:43:40;;;;;;;;;6.00;6.00;;;;;;;;4977541;28;45259;-58
2022/01/07 06:46:06;;;;;;;;;5.00;5.00;;;;;;;;4994912;28;45550;-59
2022/01/07 06:48:31;;;;;;;;;7.00;4.50;;;;;;;;4985125;28;45990;-59
2022/01/07 06:50:56;;;;;;;;;2.75;2.50;;;;;;;;4975931;28;45292;-58
2022/01/07 06:53:21;;;;;;;;;6.00;5.00;;;;;;;;4974583;28;45274;-58
2022/01/07 06:55:47;;;;;;;;;5.00;5.00;;;;;;;;4974857;28;45440;-59
2022/01/07 06:58:12;;;;;;;;;4.50;4.50;;;;;;;;4975934;28;45942;-59
2022/01/07 07:00:37;;;;;;;;;6.00;5.00;;;;;;;;4978651;28;45425;-59
2022/01/07 07:03:02;;;;;;;;;5.00;5.00;;;;;;;;4980803;28;45544;-59
2022/01/07 07:05:28;;;;;;;;;7.50;5.00;;;;;;;;4992853;28;45533;-60
2022/01/07 07:07:53;;;;;;;;;7.00;7.00;;;;;;;;4993691;28;46052;-61
2022/01/07 07:10:18;;;;;;;;;8.50;5.75;;;;;;;;4978145;28;45440;-59
2022/01/07 07:12:43;;;;;;;;;7.00;4.50;;;;;;;;4978643;28;45334;-59
2022/01/07 07:15:09;;;;;;;;;9.50;5.00;;;;;;;;4978456;28;45350;-61
2022/01/07 07:17:34;;;;;;;;;4.00;4.00;;;;;;;;4977382;28;46193;-59
2022/01/07 07:20:00;;;;;;;;;5.00;5.00;;;;;;;;4977002;28;45361;-58
2022/01/07 07:22:25;;;;;;;;;2.50;2.50;;;;;;;;4977041;28;45530;-60
2022/01/07 07:24:51;;;;;;;;;5.00;5.00;;;;;;;;4978668;28;45397;-60
2022/01/07 07:27:16;;;;;;;;;5.00;3.00;;;;;;;;4977976;28;45499;-58
2022/01/07 07:29:41;;;;;;;;;6.00;5.75;;;;;;;;4977508;28;45333;-56
2022/01/07 07:32:09;;;;;;;;;3.50;3.50;;;;;;;;4977983;28;45243;-58
2022/01/07 07:37:07;;;;;;;;;6.50;6.50;;;;;;;;4979936;28;45313;-59
2022/01/07 07:39:32;;;;;;;;;7.75;6.00;;;;;;;;4976965;28;45395;-56
2022/01/07 07:41:57;;;;;;;;;5.00;3.50;;;;;;;;4978071;28;45413;-59
2022/01/07 07:44:23;;;;;;;;;6.25;5.25;;;;;;;;4977027;28;45507;-63
2022/01/07 07:46:48;;;;;;;;;5.25;5.25;;;;;;;;4977256;28;45306;-62
2022/01/07 07:49:14;;;;;;;;;10.25;6.00;;;;;;;;4978039;28;45213;-62
2022/01/07 07:51:40;;;;;;;;;5.00;5.00;;;;;;;;4977602;28;45500;-62
2022/01/07 07:54:05;;;;;;;;;7.00;5.50;;;;;;;;4977607;28;45495;-62
2022/01/07 07:56:31;;;;;;;;;5.00;5.00;;;;;;;;4978174;28;45389;-63
2022/01/07 07:58:59;;;;;;;;;5.50;5.50;;;;;;;;4978102;28;45427;-62
2022/01/07 08:01:25;;;;;;;;;5.25;4.00;;;;;;;;4977487;28;45531;-62
2022/01/07 08:03:50;;;;;;;;;5.00;5.00;;;;;;;;4977772;28;45550;-62
2022/01/07 08:06:15;;;;;;;;;9.00;5.50;;;;;;;;4977865;28;46204;-62
2022/01/07 08:08:40;;;;;;;;;5.00;5.00;;;;;;;;4977940;28;45505;-63
2022/01/07 08:11:09;;;;;;;;;6.25;6.25;;;;;;;;4978233;28;45424;-63
2022/01/07 08:16:19;;;;;;;;;4.00;4.00;;;;;;;;4977334;28;45554;-62
2022/01/07 08:18:47;;;;;;;;;6.25;5.75;;;;;;;;4978019;28;45300;-62
2022/01/07 08:21:13;;;;;;;;;5.00;5.00;;;;;;;;4977266;28;45595;-62
2022/01/07 08:23:39;;;;;;;;;3.50;3.50;;;;;;;;4975552;28;45463;-63
2022/01/07 08:26:07;;;;;;;;;5.00;5.00;;;;;;;;4978047;28;45324;-62
2022/01/07 08:28:38;;;;;;;;;5.25;3.00;;;;;;;;4977749;28;45385;-62
2022/01/07 08:36:16;;;;;;;;;3.00;3.00;;;;;;;;4977371;28;45278;-63
2022/01/07 08:38:42;;;;;;;;;4.75;3.50;;;;;;;;4977350;28;45356;-64
2022/01/07 08:41:07;;;;;;;;;1.00;1.00;;;;;;;;4977584;28;45344;-63
2022/01/07 08:43:32;;;;;;;;;1.00;1.00;;;;;;;;4976418;28;45418;-63
2022/01/07 08:45:58;;;;;;;;;2.75;2.75;;;;;;;;4976742;28;45498;-63
2022/01/07 08:48:25;;;;;;;;;2.50;1.00;;;;;;;;4977217;28;45408;-63
2022/01/07 08:50:50;;;;;;;;;1.00;1.00;;;;;;;;4975425;28;45417;-63
2022/01/07 08:53:15;;;;;;;;;2.00;2.00;;;;;;;;4976523;28;45589;-64
2022/01/07 08:55:41;;;;;;;;;2.00;2.00;;;;;;;;4977105;28;46070;-64
2022/01/07 08:58:06;;;;;;;;;1.00;1.00;;;;;;;;4976968;28;45234;-64
2022/01/07 09:00:32;;;;;;;;;0.75;0.75;;;;;;;;4976738;28;45242;-62
2022/01/07 09:02:57;;;;;;;;;2.00;2.00;;;;;;;;4977064;28;45523;-64
2022/01/07 09:05:22;;;;;;;;;0.00;0.00;;;;;;;;4980285;28;46111;-62
2022/01/07 09:07:47;;;;;;;;;0.00;0.00;;;;;;;;4981556;28;45446;-65
2022/01/07 09:10:18;;;;;;;;;1.75;1.75;;;;;;;;4976294;28;45229;-63
2022/01/07 09:12:48;;;;;;;;;3.00;3.00;;;;;;;;4985805;28;45442;-62
2022/01/07 09:15:13;;;;;;;;;2.00;1.50;;;;;;;;4988247;28;46039;-62
2022/01/07 09:17:40;;;;;;;;;2.00;2.00;;;;;;;;4977070;28;45438;-62
2022/01/07 09:20:09;;;;;;;;;5.75;2.50;;;;;;;;4974375;28;45740;-63
2022/01/07 09:22:37;;;;;;;;;2.00;2.00;;;;;;;;4974518;28;45500;-62
2022/01/07 09:25:08;;;;;;;;;2.50;2.50;;;;;;;;4976155;28;45415;-61
2022/01/07 09:27:38;;;;;;;;;5.00;2.25;;;;;;;;4977024;28;45333;-63
2022/01/07 09:30:04;;;;;;;;;2.25;2.25;;;;;;;;4976355;28;45178;-62
2022/01/07 09:32:29;;;;;;;;;1.00;1.00;;;;;;;;4976678;28;45187;-62
2022/01/07 09:34:54;;;;;;;;;1.00;1.00;;;;;;;;4976703;28;45392;-62
2022/01/07 09:37:19;;;;;;;;;1.50;1.50;;;;;;;;4976974;28;45230;-62
2022/01/07 09:39:45;;;;;;;;;1.25;1.25;;;;;;;;4977143;28;45482;-64
2022/01/07 09:42:10;;;;;;;;;1.00;1.00;;;;;;;;4976454;28;45389;-62
2022/01/07 09:44:39;;;;;;;;;1.25;1.25;;;;;;;;4976029;28;46046;-63
2022/01/07 09:47:04;;;;;;;;;1.50;1.50;;;;;;;;4975422;28;45487;-62
2022/01/07 09:49:33;;;;;;;;;3.00;1.75;;;;;;;;4975458;28;45531;-62
2022/01/07 09:51:58;;;;;;;;;1.00;1.00;;;;;;;;4975312;28;45791;-63
2022/01/07 09:54:23;;;;;;;;;5.00;1.00;;;;;;;;4975018;28;45474;-62
2022/01/07 09:56:48;;;;;;;;;1.00;1.00;;;;;;;;4975579;28;45511;-62
2022/01/07 09:59:14;;;;;;;;;2.00;2.00;;;;;;;;4976186;28;45471;-62
2022/01/07 10:01:57;;;;;;;;;1.75;1.75;;;;;;;;4974706;28;45286;-62
2022/01/07 10:04:35;;;;;;;;;1.00;1.00;;;;;;;;4973682;28;45998;-62
2022/01/07 10:07:21;;;;;;;;;1.25;1.25;;;;;;;;4974680;28;45230;-63
2022/01/07 10:10:01;;;;;;;;;2.25;2.25;;;;;;;;4973944;28;45615;-62
2022/01/07 10:12:27;;;;;;;;;3.00;2.00;;;;;;;;4975443;28;45294;-63
2022/01/07 10:15:09;;;;;;;;;7.75;5.50;;;;;;;;4973715;28;45240;-62
2022/01/07 10:17:34;;;;;;;;;5.25;2.50;;;;;;;;4975666;28;45388;-62
2022/01/07 10:20:00;;;;;;;;;5.00;5.00;;;;;;;;4975782;28;45512;-62
2022/01/07 10:22:26;;;;;;;;;2.25;2.25;;;;;;;;4979597;28;45609;-63
2022/01/07 10:24:51;;;;;;;;;2.00;2.00;;;;;;;;4990468;28;46766;-61
2022/01/07 10:27:16;;;;;;;;;2.00;2.00;;;;;;;;4975506;28;45294;-58
2022/01/07 10:29:43;;;;;;;;;2.00;2.00;;;;;;;;4973660;28;45581;-56
2022/01/07 10:32:21;;;;;;;;;1.00;1.00;;;;;;;;4975644;28;45521;-58
2022/01/07 10:35:04;;;;;;;;;1.50;1.50;;;;;;;;4978944;28;45340;-55
2022/01/07 10:37:29;;;;;;;;;1.25;1.25;;;;;;;;4986068;28;45394;-62
2022/01/07 10:39:55;;;;;;;;;1.00;1.00;;;;;;;;4979024;28;45515;-54
2022/01/07 10:42:24;;;;;;;;;0.75;0.75;;;;;;;;4978840;28;45436;-56
2022/01/07 10:45:00;;;;;;;;;2.25;2.00;;;;;;;;4978956;28;46049;-55
2022/01/07 10:47:25;;;;;;;;;1.00;1.00;;;;;;;;4988644;28;45428;-56
2022/01/07 10:50:10;;;;;;;;;3.00;3.00;;;;;;;;4993806;28;45280;-56
2022/01/07 10:52:36;;;;;;;;;2.00;2.00;;;;;;;;4981119;28;45511;-58
2022/01/07 10:55:14;;;;;;;;;2.00;0.00;;;;;;;;4982910;28;46371;-58
2022/01/07 10:57:41;;;;;;;;;1.50;1.25;;;;;;;;4977928;28;45464;-59
2022/01/07 11:00:08;;;;;;;;;1.75;1.75;;;;;;;;4978172;28;45266;-59
2022/01/07 11:02:34;;;;;;;;;2.00;2.00;;;;;;;;4977903;28;45532;-58
2022/01/07 11:04:59;;;;;;;;;1.25;1.25;;;;;;;;4986014;28;45956;-60
2022/01/07 11:07:24;;;;;;;;;2.75;1.00;;;;;;;;4984066;28;45239;-60
2022/01/07 11:09:50;;;;;;;;;2.00;0.00;;;;;;;;4977400;28;45440;-64
2022/01/07 11:12:17;;;;;;;;;0.00;0.00;;;;;;;;4977668;28;45491;-56
2022/01/07 11:14:42;;;;;;;;;0.00;0.00;;;;;;;;4975144;28;46416;-58
2022/01/07 11:17:10;;;;;;;;;0.00;0.00;;;;;;;;4978804;28;45484;-58
2022/01/07 11:19:37;;;;;;;;;0.25;0.00;;;;;;;;4978381;28;45316;-57
2022/01/07 11:22:04;;;;;;;;;1.00;1.00;;;;;;;;4983954;28;46532;-57
2022/01/07 11:24:55;;;;;;;;;0.75;0.75;;;;;;;;4978866;28;45611;-56
2022/01/07 11:27:22;;;;;;;;;1.00;1.00;;;;;;;;4950613;28;45483;-60
2022/01/07 11:29:47;;;;;;;;;0.25;0.25;;;;;;;;4980592;28;45483;-61
2022/01/07 11:32:26;;;;;;;;;2.00;1.00;;;;;;;;4981075;28;45541;-61
2022/01/07 11:34:52;;;;;;;;;2.75;1.00;;;;;;;;4977421;28;46132;-60
2022/01/07 11:37:34;;;;;;;;;1.00;1.00;;;;;;;;4981923;28;45215;-57
2022/01/07 11:39:59;;;;;;;;;1.00;1.00;;;;;;;;4979399;28;45273;-58
2022/01/07 11:42:40;;;;;;;;;0.50;0.50;;;;;;;;4984937;28;45423;-62
2022/01/07 11:45:26;;;;;;;;;1.00;1.00;;;;;;;;4989252;28;46239;-58
2022/01/07 11:47:52;;;;;;;;;2.25;2.25;;;;;;;;4958652;28;45322;-60
2022/01/07 11:50:17;;;;;;;;;3.00;2.00;;;;;;;;4962639;28;45338;-57
2022/01/07 11:52:53;;;;;;;;;0.75;0.75;;;;;;;;4976911;28;45580;-57
2022/01/07 11:55:19;;;;;;;;;2.00;0.67;;;;;;;;4975080;28;47046;-58
2022/01/07 11:57:48;;;;;;;;;0.00;0.00;;;;;;;;4976184;28;45460;-58
2022/01/07 12:00:13;;;;;;;;;0.00;0.00;;;;;;;;4976356;28;45226;-59
2022/01/07 12:02:57;;;;;;;;;1.00;0.50;;;;;;;;4977902;28;45170;-59
2022/01/07 12:05:29;;;;;;;;;0.00;0.00;;;;;;;;4976461;28;46299;-58
2022/01/07 12:07:54;;;;;;;;;0.00;0.00;;;;;;;;4977789;28;45487;-59
2022/01/07 12:10:20;;;;;;;;;0.00;0.00;;;;;;;;4977440;28;45411;-59
2022/01/07 12:12:45;;;;;;;;;2.00;1.00;;;;;;;;4978033;28;45403;-57
2022/01/07 12:15:11;;;;;;;;;1.00;0.75;;;;;;;;4976383;28;46387;-60
2022/01/07 12:17:36;;;;;;;;;0.25;0.25;;;;;;;;4977488;28;45431;-59
2022/01/07 12:20:21;;;;;;;;;1.00;1.00;;;;;;;;4977829;28;45436;-57
2022/01/07 12:22:47;;;;;;;;;1.00;1.00;;;;;;;;4972259;28;45428;-59
2022/01/07 12:25:12;;;;;;;;;0.00;0.00;;;;;;;;4976453;28;45515;-59
2022/01/07 12:27:38;;;;;;;;;1.75;1.75;;;;;;;;4976078;28;45513;-60
2022/01/07 12:30:03;;;;;;;;;1.33;1.00;;;;;;;;4969773;28;45349;-59
2022/01/07 12:32:30;;;;;;;;;1.00;1.00;;;;;;;;4977237;28;45521;-60
2022/01/07 12:34:55;;;;;;;;;1.00;1.00;;;;;;;;4976589;28;45935;-57
2022/01/07 12:37:21;;;;;;;;;2.00;2.00;;;;;;;;4984919;28;45687;-58
2022/01/07 12:39:48;;;;;;;;;1.00;1.00;;;;;;;;4980263;28;45323;-59
2022/01/07 12:42:13;;;;;;;;;2.67;1.00;;;;;;;;4982041;28;45566;-58
2022/01/07 12:44:38;;;;;;;;;1.67;1.67;;;;;;;;4977238;28;46289;-58
2022/01/07 12:47:05;;;;;;;;;0.67;0.67;;;;;;;;4980763;28;45661;-59
2022/01/07 12:49:36;;;;;;;;;2.00;2.00;;;;;;;;4970651;28;45589;-59
2022/01/07 12:52:05;;;;;;;;;0.33;0.33;;;;;;;;4974461;28;45507;-58
2022/01/07 12:54:30;;;;;;;;;1.00;1.00;;;;;;;;4975090;28;45484;-59
2022/01/07 12:56:55;;;;;;;;;1.00;1.00;;;;;;;;4976872;28;45355;-61
2022/01/07 12:59:24;;;;;;;;;1.67;1.00;;;;;;;;4975399;28;45591;-59
2022/01/07 13:01:49;;;;;;;;;1.00;1.00;;;;;;;;4976235;28;45362;-61
2022/01/07 13:04:16;;;;;;;;;0.00;0.00;;;;;;;;4975647;28;45498;-60
2022/01/07 13:06:49;;;;;;;;;0.67;0.67;;;;;;;;4976275;28;45355;-59
2022/01/07 13:09:18;;;;;;;;;0.00;0.00;;;;;;;;4968882;28;45554;-60
2022/01/07 13:11:51;;;;;;;;;2.33;0.00;;;;;;;;4975146;28;45486;-60
2022/01/07 13:14:18;;;;;;;;;0.00;0.00;;;;;;;;4975748;28;46234;-60
2022/01/07 13:16:43;;;;;;;;;3.00;0.67;;;;;;;;4974728;28;45404;-60
2022/01/07 13:19:09;;;;;;;;;0.33;0.33;;;;;;;;4975757;28;45502;-59
2022/01/07 13:21:36;;;;;;;;;0.00;0.00;;;;;;;;4974023;28;45314;-59
2022/01/07 13:24:02;;;;;;;;;0.33;0.33;;;;;;;;4976708;28;46098;-61
2022/01/07 13:26:29;;;;;;;;;2.33;0.00;;;;;;;;4976906;28;45204;-60
2022/01/07 13:28:55;;;;;;;;;0.00;0.00;;;;;;;;4976510;28;45459;-61
2022/01/07 13:31:34;;;;;;;;;1.00;1.00;;;;;;;;4976888;28;45302;-60
2022/01/07 13:34:00;;;;;;;;;1.33;0.00;;;;;;;;4976558;28;45440;-59
2022/01/07 13:36:39;;;;;;;;;2.00;0.00;;;;;;;;4976502;28;45337;-60
2022/01/07 13:39:06;;;;;;;;;0.00;0.00;;;;;;;;4976863;28;45278;-61
2022/01/07 13:41:32;;;;;;;;;0.00;0.00;;;;;;;;4975287;28;45724;-59
2022/01/07 13:44:15;;;;;;;;;3.00;0.67;;;;;;;;4968108;28;46606;-61
2022/01/07 13:46:47;;;;;;;;;1.00;1.00;;;;;;;;4967842;28;45499;-60
2022/01/07 13:49:13;;;;;;;;;0.67;0.00;;;;;;;;4977058;28;45286;-60
2022/01/07 13:51:49;;;;;;;;;0.00;0.00;;;;;;;;4976664;28;45260;-60
2022/01/07 13:54:15;;;;;;;;;0.00;0.00;;;;;;;;4975956;28;45302;-59
2022/01/07 13:56:45;;;;;;;;;0.00;0.00;;;;;;;;4976535;28;45282;-59
2022/01/07 13:59:12;;;;;;;;;0.00;0.00;;;;;;;;4976485;28;45312;-59
2022/01/07 14:01:51;;;;;;;;;0.00;0.00;;;;;;;;4976456;28;45364;-60
2022/01/07 14:04:16;;;;;;;;;3.00;2.00;;;;;;;;4975902;28;46680;-60
2022/01/07 14:06:41;;;;;;;;;1.00;0.00;;;;;;;;4975347;28;45255;-59
2022/01/07 14:09:10;;;;;;;;;0.00;0.00;;;;;;;;4976554;28;45307;-61
2022/01/07 14:11:35;;;;;;;;;0.00;0.00;;;;;;;;4976415;28;45455;-61
2022/01/07 14:14:14;;;;;;;;;0.00;0.00;;;;;;;;4975950;28;45333;-61
2022/01/07 14:16:46;;;;;;;;;0.67;0.67;;;;;;;;4975467;28;45282;-60
2022/01/07 14:19:13;;;;;;;;;2.00;0.00;;;;;;;;4976041;28;45421;-60
2022/01/07 14:21:38;;;;;;;;;2.00;0.00;;;;;;;;4975456;28;45578;-60
2022/01/07 14:24:05;;;;;;;;;0.00;0.00;;;;;;;;4976028;28;46063;-60
2022/01/07 14:26:32;;;;;;;;;1.33;0.00;;;;;;;;4975948;28;45386;-60
2022/01/07 14:28:59;;;;;;;;;0.00;0.00;;;;;;;;4976148;28;45416;-61
2022/01/07 14:31:25;;;;;;;;;0.00;0.00;;;;;;;;4976361;28;45571;-61
2022/01/07 14:33:50;;;;;;;;;2.00;1.00;;;;;;;;4974688;28;47149;-60
2022/01/07 14:36:16;;;;;;;;;1.00;1.00;;;;;;;;4976535;28;45312;-59
2022/01/07 14:38:44;;;;;;;;;0.67;0.00;;;;;;;;4974102;28;45442;-59
2022/01/07 14:41:10;;;;;;;;;0.00;0.00;;;;;;;;4976237;28;45598;-62
2022/01/07 14:43:35;;;;;;;;;1.67;0.67;;;;;;;;4970911;28;46435;-59
2022/01/07 14:46:00;;;;;;;;;1.00;1.00;;;;;;;;4956520;28;45274;-60